VDPP/PNH METAR and TAF weather

Enter ICAO airport designator
Station Type Date Time Source
VDPP METAR 2019/04/24 16:00 UTC NOAA

VDPP 241600Z 16008KT 9000 SCT017 SCT040 31/26 Q1007


Station Type Date Time Source
VDPP Decoded METAR 2019/04/24 16:00 UTC NOAA

Phnom-Penh / Pochentong, Cambodia (VDPP) 11-33N 104-51E 10M
Apr 24, 2019 - 12:00 PM EDT / 2019.04.24 1600 UTC
Wind: from the SSE (160 degrees) at 9 MPH (8 KT):0
Visibility: 5 mile(s):0
Sky conditions: partly cloudy
Temperature: 87 F (31 C)
Heat index: 99.7 F (37.6 C):1
Dew Point: 78 F (26 C)
Relative Humidity: 74%
Pressure (altimeter): 29.74 in. Hg (1007 hPa)
ob: VDPP 241600Z 16008KT 9000 SCT017 SCT040 31/26 Q1007
cycle: 16

Station Type Date Time Source
VDPP TAF 2019/04/24 12:00 UTC NOAA

TAF VDPP 241100Z 2412/2506 14006KT 9999 SCT017
TEMPO 2412/2415 SCT015 FEW017CB

Example: see airport list